sensor_id;sensor_type;location;lat;lon;timestamp;P1;durP1;ratioP1;P2;durP2;ratioP2
71298;SDS011;59083;47.974;21.722;2023-02-28T00:00:27;9.05;;;4.25;;
71298;SDS011;59083;47.974;21.722;2023-02-28T00:03:29;10.90;;;4.47;;
71298;SDS011;59083;47.974;21.722;2023-02-28T00:06:30;10.85;;;4.45;;
71298;SDS011;59083;47.974;21.722;2023-02-28T00:09:31;9.17;;;4.20;;
71298;SDS011;59083;47.974;21.722;2023-02-28T00:12:33;8.63;;;4.03;;
71298;SDS011;59083;47.974;21.722;2023-02-28T00:15:35;9.77;;;4.10;;
71298;SDS011;59083;47.974;21.722;2023-02-28T00:18:37;9.68;;;4.35;;
71298;SDS011;59083;47.974;21.722;2023-02-28T00:21:38;11.38;;;4.47;;
71298;SDS011;59083;47.974;21.722;2023-02-28T00:24:41;12.60;;;4.20;;
71298;SDS011;59083;47.974;21.722;2023-02-28T00:27:43;11.05;;;4.55;;
71298;SDS011;59083;47.974;21.722;2023-02-28T00:30:44;12.27;;;4.07;;
71298;SDS011;59083;47.974;21.722;2023-02-28T00:33:45;10.30;;;4.47;;
71298;SDS011;59083;47.974;21.722;2023-02-28T00:36:49;10.70;;;4.53;;
71298;SDS011;59083;47.974;21.722;2023-02-28T00:39:50;10.93;;;4.47;;
71298;SDS011;59083;47.974;21.722;2023-02-28T00:42:51;10.48;;;4.30;;
71298;SDS011;59083;47.974;21.722;2023-02-28T00:45:52;9.23;;;4.32;;
71298;SDS011;59083;47.974;21.722;2023-02-28T00:48:53;11.75;;;3.83;;
71298;SDS011;59083;47.974;21.722;2023-02-28T00:51:55;9.55;;;4.00;;
71298;SDS011;59083;47.974;21.722;2023-02-28T00:54:57;9.67;;;3.93;;
71298;SDS011;59083;47.974;21.722;2023-02-28T00:57:58;9.18;;;3.67;;
71298;SDS011;59083;47.974;21.722;2023-02-28T01:00:59;9.40;;;3.90;;
71298;SDS011;59083;47.974;21.722;2023-02-28T01:04:01;10.45;;;4.32;;
71298;SDS011;59083;47.974;21.722;2023-02-28T01:07:02;11.30;;;4.35;;
71298;SDS011;59083;47.974;21.722;2023-02-28T01:10:04;11.07;;;4.33;;
71298;SDS011;59083;47.974;21.722;2023-02-28T01:13:05;9.38;;;4.00;;
71298;SDS011;59083;47.974;21.722;2023-02-28T01:16:07;9.10;;;4.30;;
71298;SDS011;59083;47.974;21.722;2023-02-28T01:19:09;9.45;;;4.05;;
71298;SDS011;59083;47.974;21.722;2023-02-28T01:22:12;10.65;;;3.83;;
71298;SDS011;59083;47.974;21.722;2023-02-28T01:25:13;10.70;;;3.90;;
71298;SDS011;59083;47.974;21.722;2023-02-28T01:28:15;10.70;;;4.50;;
71298;SDS011;59083;47.974;21.722;2023-02-28T01:31:16;11.07;;;3.92;;
71298;SDS011;59083;47.974;21.722;2023-02-28T01:34:19;11.90;;;4.40;;
71298;SDS011;59083;47.974;21.722;2023-02-28T01:37:20;9.38;;;4.10;;
71298;SDS011;59083;47.974;21.722;2023-02-28T01:40:22;9.20;;;3.90;;
71298;SDS011;59083;47.974;21.722;2023-02-28T01:43:28;9.88;;;4.20;;
71298;SDS011;59083;47.974;21.722;2023-02-28T01:46:32;9.90;;;3.92;;
71298;SDS011;59083;47.974;21.722;2023-02-28T01:49:34;9.63;;;4.28;;
71298;SDS011;59083;47.974;21.722;2023-02-28T01:52:36;9.07;;;3.80;;
71298;SDS011;59083;47.974;21.722;2023-02-28T01:55:37;12.93;;;4.23;;
71298;SDS011;59083;47.974;21.722;2023-02-28T01:58:41;11.63;;;4.32;;
71298;SDS011;59083;47.974;21.722;2023-02-28T02:01:42;8.90;;;3.78;;
71298;SDS011;59083;47.974;21.722;2023-02-28T02:04:54;8.02;;;3.80;;
71298;SDS011;59083;47.974;21.722;2023-02-28T02:08:03;9.73;;;4.22;;
71298;SDS011;59083;47.974;21.722;2023-02-28T02:11:07;9.83;;;3.83;;
71298;SDS011;59083;47.974;21.722;2023-02-28T02:17:45;9.52;;;4.20;;
71298;SDS011;59083;47.974;21.722;2023-02-28T02:34:26;8.85;;;3.85;;
71298;SDS011;59083;47.974;21.722;2023-02-28T02:38:01;9.82;;;4.00;;
71298;SDS011;59083;47.974;21.722;2023-02-28T02:44:45;10.30;;;4.00;;
71298;SDS011;59083;47.974;21.722;2023-02-28T02:47:51;9.00;;;3.50;;
71298;SDS011;59083;47.974;21.722;2023-02-28T02:50:54;10.32;;;4.53;;
71298;SDS011;59083;47.974;21.722;2023-02-28T02:54:15;10.68;;;4.05;;
71298;SDS011;59083;47.974;21.722;2023-02-28T02:57:25;9.40;;;3.97;;
71298;SDS011;59083;47.974;21.722;2023-02-28T03:00:34;9.47;;;4.37;;
71298;SDS011;59083;47.974;21.722;2023-02-28T03:03:40;9.10;;;4.62;;
71298;SDS011;59083;47.974;21.722;2023-02-28T03:06:42;10.75;;;4.28;;
71298;SDS011;59083;47.974;21.722;2023-02-28T03:09:50;9.85;;;3.75;;
71298;SDS011;59083;47.974;21.722;2023-02-28T03:12:57;10.48;;;4.57;;
71298;SDS011;59083;47.974;21.722;2023-02-28T03:25:56;11.95;;;4.60;;
71298;SDS011;59083;47.974;21.722;2023-02-28T03:29:28;9.95;;;4.43;;
71298;SDS011;59083;47.974;21.722;2023-02-28T03:32:34;9.70;;;3.87;;
71298;SDS011;59083;47.974;21.722;2023-02-28T03:35:49;9.35;;;3.85;;
71298;SDS011;59083;47.974;21.722;2023-02-28T03:39:04;8.45;;;4.00;;
71298;SDS011;59083;47.974;21.722;2023-02-28T03:42:21;10.25;;;4.20;;
71298;SDS011;59083;47.974;21.722;2023-02-28T03:45:28;10.43;;;4.57;;
71298;SDS011;59083;47.974;21.722;2023-02-28T03:48:38;11.23;;;4.10;;
71298;SDS011;59083;47.974;21.722;2023-02-28T03:51:44;9.70;;;4.35;;
71298;SDS011;59083;47.974;21.722;2023-02-28T03:54:51;9.98;;;4.22;;
71298;SDS011;59083;47.974;21.722;2023-02-28T04:01:28;10.07;;;4.40;;
71298;SDS011;59083;47.974;21.722;2023-02-28T04:04:36;10.43;;;4.30;;
71298;SDS011;59083;47.974;21.722;2023-02-28T04:07:37;12.07;;;5.28;;
71298;SDS011;59083;47.974;21.722;2023-02-28T04:10:38;11.50;;;4.75;;
71298;SDS011;59083;47.974;21.722;2023-02-28T04:13:39;11.75;;;4.57;;
71298;SDS011;59083;47.974;21.722;2023-02-28T04:16:41;10.50;;;4.90;;
71298;SDS011;59083;47.974;21.722;2023-02-28T04:19:42;12.17;;;4.80;;
71298;SDS011;59083;47.974;21.722;2023-02-28T04:22:43;10.27;;;4.45;;
71298;SDS011;59083;47.974;21.722;2023-02-28T04:25:44;10.20;;;4.82;;
71298;SDS011;59083;47.974;21.722;2023-02-28T04:28:46;10.27;;;4.70;;
71298;SDS011;59083;47.974;21.722;2023-02-28T04:31:47;11.88;;;4.72;;
71298;SDS011;59083;47.974;21.722;2023-02-28T04:34:48;11.23;;;4.80;;
71298;SDS011;59083;47.974;21.722;2023-02-28T04:37:49;11.73;;;4.72;;
71298;SDS011;59083;47.974;21.722;2023-02-28T04:40:51;11.60;;;4.97;;
71298;SDS011;59083;47.974;21.722;2023-02-28T04:43:52;12.10;;;5.07;;
71298;SDS011;59083;47.974;21.722;2023-02-28T04:46:53;11.23;;;5.10;;
71298;SDS011;59083;47.974;21.722;2023-02-28T04:49:55;9.70;;;4.30;;
71298;SDS011;59083;47.974;21.722;2023-02-28T04:52:56;11.88;;;4.65;;
71298;SDS011;59083;47.974;21.722;2023-02-28T04:55:57;12.63;;;4.93;;
71298;SDS011;59083;47.974;21.722;2023-02-28T04:58:58;10.70;;;4.70;;
71298;SDS011;59083;47.974;21.722;2023-02-28T05:02:00;10.85;;;5.20;;
71298;SDS011;59083;47.974;21.722;2023-02-28T05:05:01;12.87;;;5.70;;
71298;SDS011;59083;47.974;21.722;2023-02-28T05:08:02;12.95;;;5.37;;
71298;SDS011;59083;47.974;21.722;2023-02-28T05:11:07;12.82;;;5.30;;
71298;SDS011;59083;47.974;21.722;2023-02-28T05:14:18;12.15;;;4.95;;
71298;SDS011;59083;47.974;21.722;2023-02-28T05:17:19;15.13;;;5.10;;
71298;SDS011;59083;47.974;21.722;2023-02-28T05:20:20;11.03;;;5.23;;
71298;SDS011;59083;47.974;21.722;2023-02-28T05:23:22;11.07;;;4.90;;
71298;SDS011;59083;47.974;21.722;2023-02-28T05:26:24;13.40;;;5.55;;
71298;SDS011;59083;47.974;21.722;2023-02-28T05:29:26;10.75;;;4.93;;
71298;SDS011;59083;47.974;21.722;2023-02-28T05:32:27;10.70;;;5.12;;
71298;SDS011;59083;47.974;21.722;2023-02-28T05:35:28;12.30;;;5.23;;
71298;SDS011;59083;47.974;21.722;2023-02-28T05:38:29;12.45;;;4.95;;
71298;SDS011;59083;47.974;21.722;2023-02-28T05:41:30;10.32;;;4.75;;
71298;SDS011;59083;47.974;21.722;2023-02-28T05:44:31;13.35;;;4.85;;
71298;SDS011;59083;47.974;21.722;2023-02-28T05:47:33;14.20;;;5.65;;
71298;SDS011;59083;47.974;21.722;2023-02-28T05:50:34;11.43;;;4.97;;
71298;SDS011;59083;47.974;21.722;2023-02-28T05:53:36;11.63;;;5.53;;
71298;SDS011;59083;47.974;21.722;2023-02-28T05:56:37;11.88;;;5.70;;
71298;SDS011;59083;47.974;21.722;2023-02-28T05:59:40;13.68;;;5.35;;
71298;SDS011;59083;47.974;21.722;2023-02-28T06:02:41;15.60;;;5.85;;
71298;SDS011;59083;47.974;21.722;2023-02-28T06:05:43;12.00;;;5.40;;
71298;SDS011;59083;47.974;21.722;2023-02-28T06:08:44;12.75;;;5.95;;
71298;SDS011;59083;47.974;21.722;2023-02-28T06:11:46;14.30;;;5.93;;
71298;SDS011;59083;47.974;21.722;2023-02-28T06:14:47;13.57;;;6.57;;
71298;SDS011;59083;47.974;21.722;2023-02-28T06:17:48;12.20;;;6.00;;
71298;SDS011;59083;47.974;21.722;2023-02-28T06:20:53;12.70;;;5.70;;
71298;SDS011;59083;47.974;21.722;2023-02-28T06:23:56;20.88;;;6.18;;
71298;SDS011;59083;47.974;21.722;2023-02-28T06:26:58;14.85;;;6.18;;
71298;SDS011;59083;47.974;21.722;2023-02-28T06:30:05;16.40;;;6.68;;
71298;SDS011;59083;47.974;21.722;2023-02-28T06:33:07;11.18;;;5.20;;
71298;SDS011;59083;47.974;21.722;2023-02-28T06:36:09;14.63;;;5.53;;
71298;SDS011;59083;47.974;21.722;2023-02-28T06:39:13;15.13;;;6.00;;
71298;SDS011;59083;47.974;21.722;2023-02-28T06:42:14;13.73;;;5.62;;
71298;SDS011;59083;47.974;21.722;2023-02-28T06:45:15;10.75;;;5.07;;
71298;SDS011;59083;47.974;21.722;2023-02-28T06:48:17;12.68;;;5.60;;
71298;SDS011;59083;47.974;21.722;2023-02-28T06:51:19;12.50;;;5.43;;
71298;SDS011;59083;47.974;21.722;2023-02-28T06:54:23;13.62;;;7.22;;
71298;SDS011;59083;47.974;21.722;2023-02-28T06:57:24;12.18;;;5.85;;
71298;SDS011;59083;47.974;21.722;2023-02-28T07:00:26;13.93;;;5.50;;
71298;SDS011;59083;47.974;21.722;2023-02-28T07:03:27;14.32;;;6.60;;
71298;SDS011;59083;47.974;21.722;2023-02-28T07:06:28;10.97;;;4.83;;
71298;SDS011;59083;47.974;21.722;2023-02-28T07:09:29;11.98;;;5.30;;
71298;SDS011;59083;47.974;21.722;2023-02-28T07:12:31;15.40;;;6.03;;
71298;SDS011;59083;47.974;21.722;2023-02-28T07:15:32;12.52;;;5.28;;
71298;SDS011;59083;47.974;21.722;2023-02-28T07:18:33;13.50;;;5.85;;
71298;SDS011;59083;47.974;21.722;2023-02-28T07:21:35;13.43;;;5.70;;
71298;SDS011;59083;47.974;21.722;2023-02-28T07:24:36;13.05;;;5.22;;
71298;SDS011;59083;47.974;21.722;2023-02-28T07:27:37;11.50;;;5.32;;
71298;SDS011;59083;47.974;21.722;2023-02-28T07:30:38;11.93;;;5.22;;
71298;SDS011;59083;47.974;21.722;2023-02-28T07:33:40;12.40;;;4.90;;
71298;SDS011;59083;47.974;21.722;2023-02-28T07:36:42;11.40;;;5.47;;
71298;SDS011;59083;47.974;21.722;2023-02-28T07:39:43;15.18;;;5.72;;
71298;SDS011;59083;47.974;21.722;2023-02-28T07:42:44;12.45;;;5.62;;
71298;SDS011;59083;47.974;21.722;2023-02-28T07:45:47;14.13;;;6.35;;
71298;SDS011;59083;47.974;21.722;2023-02-28T07:48:48;11.75;;;5.60;;
71298;SDS011;59083;47.974;21.722;2023-02-28T07:51:49;12.87;;;5.23;;
71298;SDS011;59083;47.974;21.722;2023-02-28T07:54:51;16.50;;;5.15;;
71298;SDS011;59083;47.974;21.722;2023-02-28T07:57:52;11.48;;;5.50;;
71298;SDS011;59083;47.974;21.722;2023-02-28T08:00:53;9.77;;;5.15;;
71298;SDS011;59083;47.974;21.722;2023-02-28T08:03:56;11.57;;;5.22;;
71298;SDS011;59083;47.974;21.722;2023-02-28T08:06:57;12.97;;;5.87;;
71298;SDS011;59083;47.974;21.722;2023-02-28T08:09:59;12.52;;;5.68;;
71298;SDS011;59083;47.974;21.722;2023-02-28T08:13:01;14.90;;;5.90;;
71298;SDS011;59083;47.974;21.722;2023-02-28T08:16:02;15.25;;;6.03;;
71298;SDS011;59083;47.974;21.722;2023-02-28T08:19:03;13.02;;;5.32;;
71298;SDS011;59083;47.974;21.722;2023-02-28T08:22:05;12.50;;;5.70;;
71298;SDS011;59083;47.974;21.722;2023-02-28T08:25:06;12.30;;;5.62;;
71298;SDS011;59083;47.974;21.722;2023-02-28T08:28:08;15.93;;;5.28;;
71298;SDS011;59083;47.974;21.722;2023-02-28T08:31:09;12.50;;;5.37;;
71298;SDS011;59083;47.974;21.722;2023-02-28T08:34:13;14.40;;;6.28;;
71298;SDS011;59083;47.974;21.722;2023-02-28T08:37:16;12.00;;;5.53;;
71298;SDS011;59083;47.974;21.722;2023-02-28T08:40:17;12.65;;;5.22;;
71298;SDS011;59083;47.974;21.722;2023-02-28T08:43:19;16.12;;;5.60;;
71298;SDS011;59083;47.974;21.722;2023-02-28T08:46:20;14.10;;;5.60;;
71298;SDS011;59083;47.974;21.722;2023-02-28T08:49:21;15.85;;;5.60;;
71298;SDS011;59083;47.974;21.722;2023-02-28T08:52:23;11.70;;;5.63;;
71298;SDS011;59083;47.974;21.722;2023-02-28T08:55:24;11.88;;;5.37;;
71298;SDS011;59083;47.974;21.722;2023-02-28T08:58:25;11.82;;;6.18;;
71298;SDS011;59083;47.974;21.722;2023-02-28T09:01:28;13.35;;;5.78;;
71298;SDS011;59083;47.974;21.722;2023-02-28T09:04:30;16.02;;;5.85;;
71298;SDS011;59083;47.974;21.722;2023-02-28T09:07:33;16.07;;;6.33;;
71298;SDS011;59083;47.974;21.722;2023-02-28T09:10:35;11.82;;;4.90;;
71298;SDS011;59083;47.974;21.722;2023-02-28T09:13:36;13.38;;;5.37;;
71298;SDS011;59083;47.974;21.722;2023-02-28T09:16:38;11.40;;;5.35;;
71298;SDS011;59083;47.974;21.722;2023-02-28T09:19:40;14.23;;;6.20;;
71298;SDS011;59083;47.974;21.722;2023-02-28T09:22:41;11.20;;;5.40;;
71298;SDS011;59083;47.974;21.722;2023-02-28T09:25:46;13.23;;;6.15;;
71298;SDS011;59083;47.974;21.722;2023-02-28T09:28:49;12.85;;;5.80;;
71298;SDS011;59083;47.974;21.722;2023-02-28T09:31:51;11.30;;;5.65;;
71298;SDS011;59083;47.974;21.722;2023-02-28T09:34:52;12.63;;;6.07;;
71298;SDS011;59083;47.974;21.722;2023-02-28T09:37:54;14.50;;;5.93;;
71298;SDS011;59083;47.974;21.722;2023-02-28T09:40:56;10.70;;;5.45;;
71298;SDS011;59083;47.974;21.722;2023-02-28T09:43:59;12.30;;;5.57;;
71298;SDS011;59083;47.974;21.722;2023-02-28T09:47:14;16.27;;;5.97;;
71298;SDS011;59083;47.974;21.722;2023-02-28T09:53:41;12.00;;;5.67;;
71298;SDS011;59083;47.974;21.722;2023-02-28T09:56:42;11.32;;;5.70;;
71298;SDS011;59083;47.974;21.722;2023-02-28T09:59:59;12.52;;;6.00;;
71298;SDS011;59083;47.974;21.722;2023-02-28T10:06:29;12.75;;;6.25;;
71298;SDS011;59083;47.974;21.722;2023-02-28T10:09:34;12.00;;;5.70;;
71298;SDS011;59083;47.974;21.722;2023-02-28T10:12:37;11.23;;;5.93;;
71298;SDS011;59083;47.974;21.722;2023-02-28T10:15:44;12.48;;;5.60;;
71298;SDS011;59083;47.974;21.722;2023-02-28T10:22:15;15.40;;;6.72;;
71298;SDS011;59083;47.974;21.722;2023-02-28T10:25:21;14.97;;;6.40;;
71298;SDS011;59083;47.974;21.722;2023-02-28T10:28:25;11.10;;;5.82;;
71298;SDS011;59083;47.974;21.722;2023-02-28T10:31:29;14.32;;;6.28;;
71298;SDS011;59083;47.974;21.722;2023-02-28T10:34:31;12.37;;;5.90;;
71298;SDS011;59083;47.974;21.722;2023-02-28T10:37:32;13.25;;;5.75;;
71298;SDS011;59083;47.974;21.722;2023-02-28T10:40:38;12.27;;;5.60;;
71298;SDS011;59083;47.974;21.722;2023-02-28T10:43:40;10.95;;;5.45;;
71298;SDS011;59083;47.974;21.722;2023-02-28T10:46:42;11.40;;;5.60;;
71298;SDS011;59083;47.974;21.722;2023-02-28T10:49:48;12.60;;;5.78;;
71298;SDS011;59083;47.974;21.722;2023-02-28T10:52:53;11.05;;;5.37;;
71298;SDS011;59083;47.974;21.722;2023-02-28T11:02:29;11.73;;;5.75;;
71298;SDS011;59083;47.974;21.722;2023-02-28T11:05:38;10.98;;;4.65;;
71298;SDS011;59083;47.974;21.722;2023-02-28T11:08:46;12.80;;;5.78;;
71298;SDS011;59083;47.974;21.722;2023-02-28T11:11:58;10.73;;;5.27;;
71298;SDS011;59083;47.974;21.722;2023-02-28T11:15:02;11.60;;;5.32;;
71298;SDS011;59083;47.974;21.722;2023-02-28T11:21:18;11.15;;;4.47;;
71298;SDS011;59083;47.974;21.722;2023-02-28T11:24:28;11.77;;;5.03;;
71298;SDS011;59083;47.974;21.722;2023-02-28T11:30:35;10.13;;;4.57;;
71298;SDS011;59083;47.974;21.722;2023-02-28T11:33:42;14.57;;;5.10;;
71298;SDS011;59083;47.974;21.722;2023-02-28T11:36:45;11.05;;;5.22;;
71298;SDS011;59083;47.974;21.722;2023-02-28T11:39:47;10.80;;;5.00;;
71298;SDS011;59083;47.974;21.722;2023-02-28T11:43:02;10.37;;;5.10;;
71298;SDS011;59083;47.974;21.722;2023-02-28T11:46:18;10.27;;;4.80;;
71298;SDS011;59083;47.974;21.722;2023-02-28T11:55:58;10.35;;;4.87;;
71298;SDS011;59083;47.974;21.722;2023-02-28T12:02:20;11.00;;;5.47;;
71298;SDS011;59083;47.974;21.722;2023-02-28T12:15:58;13.23;;;5.57;;
71298;SDS011;59083;47.974;21.722;2023-02-28T12:29:21;18.87;;;8.60;;
71298;SDS011;59083;47.974;21.722;2023-02-28T12:35:38;15.73;;;6.47;;
71298;SDS011;59083;47.974;21.722;2023-02-28T12:38:49;11.93;;;5.70;;
71298;SDS011;59083;47.974;21.722;2023-02-28T12:42:14;12.40;;;5.43;;
71298;SDS011;59083;47.974;21.722;2023-02-28T12:48:48;12.40;;;5.30;;
71298;SDS011;59083;47.974;21.722;2023-02-28T12:51:56;13.38;;;5.35;;
71298;SDS011;59083;47.974;21.722;2023-02-28T12:55:03;11.43;;;5.45;;
71298;SDS011;59083;47.974;21.722;2023-02-28T13:11:28;12.25;;;5.65;;
71298;SDS011;59083;47.974;21.722;2023-02-28T13:17:35;10.63;;;4.82;;
71298;SDS011;59083;47.974;21.722;2023-02-28T13:20:37;10.53;;;5.40;;
71298;SDS011;59083;47.974;21.722;2023-02-28T13:30:00;10.48;;;5.60;;
71298;SDS011;59083;47.974;21.722;2023-02-28T13:36:29;10.90;;;5.00;;
71298;SDS011;59083;47.974;21.722;2023-02-28T13:49:19;12.18;;;6.00;;
71298;SDS011;59083;47.974;21.722;2023-02-28T13:52:25;12.03;;;5.67;;
71298;SDS011;59083;47.974;21.722;2023-02-28T13:55:28;11.77;;;5.22;;
71298;SDS011;59083;47.974;21.722;2023-02-28T14:01:57;28.50;;;11.35;;
71298;SDS011;59083;47.974;21.722;2023-02-28T14:05:17;13.90;;;6.35;;
71298;SDS011;59083;47.974;21.722;2023-02-28T14:08:22;11.73;;;5.97;;
71298;SDS011;59083;47.974;21.722;2023-02-28T14:11:25;10.98;;;5.25;;
71298;SDS011;59083;47.974;21.722;2023-02-28T14:17:36;14.18;;;6.18;;
71298;SDS011;59083;47.974;21.722;2023-02-28T14:20:38;14.15;;;5.78;;
71298;SDS011;59083;47.974;21.722;2023-02-28T14:24:02;13.03;;;6.70;;
71298;SDS011;59083;47.974;21.722;2023-02-28T14:27:16;13.23;;;6.50;;
71298;SDS011;59083;47.974;21.722;2023-02-28T14:34:04;13.95;;;5.53;;
71298;SDS011;59083;47.974;21.722;2023-02-28T14:37:32;10.90;;;5.60;;
71298;SDS011;59083;47.974;21.722;2023-02-28T14:40:37;11.80;;;5.60;;
71298;SDS011;59083;47.974;21.722;2023-02-28T14:43:47;11.82;;;6.20;;
71298;SDS011;59083;47.974;21.722;2023-02-28T14:46:52;14.07;;;6.50;;
71298;SDS011;59083;47.974;21.722;2023-02-28T14:49:54;12.88;;;6.20;;
71298;SDS011;59083;47.974;21.722;2023-02-28T14:52:56;13.40;;;6.57;;
71298;SDS011;59083;47.974;21.722;2023-02-28T14:55:58;17.27;;;8.80;;
71298;SDS011;59083;47.974;21.722;2023-02-28T14:59:01;13.85;;;6.93;;
71298;SDS011;59083;47.974;21.722;2023-02-28T15:02:20;12.27;;;5.93;;
71298;SDS011;59083;47.974;21.722;2023-02-28T15:05:30;13.05;;;5.90;;
71298;SDS011;59083;47.974;21.722;2023-02-28T15:08:34;15.70;;;7.78;;
71298;SDS011;59083;47.974;21.722;2023-02-28T15:11:38;14.47;;;6.37;;
71298;SDS011;59083;47.974;21.722;2023-02-28T15:14:42;18.98;;;6.85;;
71298;SDS011;59083;47.974;21.722;2023-02-28T15:17:45;12.88;;;6.30;;
71298;SDS011;59083;47.974;21.722;2023-02-28T15:20:51;16.95;;;8.20;;
71298;SDS011;59083;47.974;21.722;2023-02-28T15:23:57;18.02;;;7.82;;
71298;SDS011;59083;47.974;21.722;2023-02-28T15:27:04;16.80;;;7.20;;
71298;SDS011;59083;47.974;21.722;2023-02-28T15:30:24;14.52;;;6.62;;
71298;SDS011;59083;47.974;21.722;2023-02-28T15:33:28;15.43;;;7.18;;
71298;SDS011;59083;47.974;21.722;2023-02-28T15:36:32;13.90;;;6.68;;
71298;SDS011;59083;47.974;21.722;2023-02-28T15:39:41;14.40;;;6.05;;
71298;SDS011;59083;47.974;21.722;2023-02-28T15:46:19;14.18;;;6.43;;
71298;SDS011;59083;47.974;21.722;2023-02-28T15:49:21;14.10;;;6.43;;
71298;SDS011;59083;47.974;21.722;2023-02-28T15:55:37;13.38;;;6.00;;
71298;SDS011;59083;47.974;21.722;2023-02-28T15:58:39;13.40;;;6.83;;
71298;SDS011;59083;47.974;21.722;2023-02-28T16:01:42;16.05;;;6.32;;
71298;SDS011;59083;47.974;21.722;2023-02-28T16:04:56;17.45;;;8.93;;
71298;SDS011;59083;47.974;21.722;2023-02-28T16:08:00;13.60;;;6.50;;
71298;SDS011;59083;47.974;21.722;2023-02-28T16:11:12;13.82;;;6.18;;
71298;SDS011;59083;47.974;21.722;2023-02-28T16:14:17;13.07;;;6.47;;
71298;SDS011;59083;47.974;21.722;2023-02-28T16:17:22;15.10;;;6.25;;
71298;SDS011;59083;47.974;21.722;2023-02-28T16:20:28;17.30;;;8.18;;
71298;SDS011;59083;47.974;21.722;2023-02-28T16:23:31;13.02;;;6.35;;
71298;SDS011;59083;47.974;21.722;2023-02-28T16:26:32;14.45;;;7.03;;
71298;SDS011;59083;47.974;21.722;2023-02-28T16:29:35;18.90;;;9.30;;
71298;SDS011;59083;47.974;21.722;2023-02-28T16:32:37;26.65;;;11.85;;
71298;SDS011;59083;47.974;21.722;2023-02-28T16:35:39;17.33;;;7.97;;
71298;SDS011;59083;47.974;21.722;2023-02-28T16:38:40;17.35;;;8.15;;
71298;SDS011;59083;47.974;21.722;2023-02-28T16:41:42;18.42;;;8.38;;
71298;SDS011;59083;47.974;21.722;2023-02-28T16:44:45;21.47;;;9.27;;
71298;SDS011;59083;47.974;21.722;2023-02-28T16:47:47;17.58;;;8.43;;
71298;SDS011;59083;47.974;21.722;2023-02-28T16:50:48;21.65;;;9.00;;
71298;SDS011;59083;47.974;21.722;2023-02-28T16:53:50;18.90;;;8.57;;
71298;SDS011;59083;47.974;21.722;2023-02-28T16:56:51;20.12;;;8.45;;
71298;SDS011;59083;47.974;21.722;2023-02-28T16:59:52;21.87;;;9.33;;
71298;SDS011;59083;47.974;21.722;2023-02-28T17:02:54;19.37;;;8.07;;
71298;SDS011;59083;47.974;21.722;2023-02-28T17:05:56;17.67;;;8.40;;
71298;SDS011;59083;47.974;21.722;2023-02-28T17:08:57;17.90;;;7.55;;
71298;SDS011;59083;47.974;21.722;2023-02-28T17:12:00;15.95;;;7.72;;
71298;SDS011;59083;47.974;21.722;2023-02-28T17:15:01;17.03;;;8.23;;
71298;SDS011;59083;47.974;21.722;2023-02-28T17:18:02;18.50;;;9.05;;
71298;SDS011;59083;47.974;21.722;2023-02-28T17:21:05;20.25;;;9.15;;
71298;SDS011;59083;47.974;21.722;2023-02-28T17:24:10;33.75;;;15.40;;
71298;SDS011;59083;47.974;21.722;2023-02-28T17:27:12;26.25;;;12.52;;
71298;SDS011;59083;47.974;21.722;2023-02-28T17:33:23;26.37;;;11.73;;
71298;SDS011;59083;47.974;21.722;2023-02-28T17:36:25;24.87;;;12.57;;
71298;SDS011;59083;47.974;21.722;2023-02-28T17:39:27;25.10;;;11.80;;
71298;SDS011;59083;47.974;21.722;2023-02-28T17:42:28;24.33;;;10.98;;
71298;SDS011;59083;47.974;21.722;2023-02-28T17:45:29;21.07;;;10.27;;
71298;SDS011;59083;47.974;21.722;2023-02-28T17:48:31;21.75;;;10.20;;
71298;SDS011;59083;47.974;21.722;2023-02-28T17:51:33;19.05;;;8.82;;
71298;SDS011;59083;47.974;21.722;2023-02-28T17:54:34;23.48;;;10.85;;
71298;SDS011;59083;47.974;21.722;2023-02-28T17:57:35;17.45;;;8.85;;
71298;SDS011;59083;47.974;21.722;2023-02-28T18:00:36;15.27;;;7.87;;
71298;SDS011;59083;47.974;21.722;2023-02-28T18:03:39;21.85;;;10.07;;
71298;SDS011;59083;47.974;21.722;2023-02-28T18:06:41;19.42;;;9.60;;
71298;SDS011;59083;47.974;21.722;2023-02-28T18:09:47;17.55;;;7.95;;
71298;SDS011;59083;47.974;21.722;2023-02-28T18:12:50;16.85;;;8.23;;
71298;SDS011;59083;47.974;21.722;2023-02-28T18:15:53;27.47;;;13.13;;
71298;SDS011;59083;47.974;21.722;2023-02-28T18:18:54;21.95;;;9.18;;
71298;SDS011;59083;47.974;21.722;2023-02-28T18:21:55;23.50;;;9.05;;
71298;SDS011;59083;47.974;21.722;2023-02-28T18:24:57;21.58;;;10.00;;
71298;SDS011;59083;47.974;21.722;2023-02-28T18:27:58;17.30;;;8.80;;
71298;SDS011;59083;47.974;21.722;2023-02-28T18:31:06;19.03;;;9.27;;
71298;SDS011;59083;47.974;21.722;2023-02-28T18:34:08;18.67;;;8.85;;
71298;SDS011;59083;47.974;21.722;2023-02-28T18:37:09;19.10;;;8.73;;
71298;SDS011;59083;47.974;21.722;2023-02-28T18:40:11;18.37;;;8.52;;
71298;SDS011;59083;47.974;21.722;2023-02-28T18:43:14;16.92;;;8.13;;
71298;SDS011;59083;47.974;21.722;2023-02-28T18:46:16;18.60;;;8.23;;
71298;SDS011;59083;47.974;21.722;2023-02-28T18:49:18;15.60;;;7.85;;
71298;SDS011;59083;47.974;21.722;2023-02-28T18:52:19;18.02;;;8.38;;
71298;SDS011;59083;47.974;21.722;2023-02-28T18:55:20;16.33;;;8.20;;
71298;SDS011;59083;47.974;21.722;2023-02-28T18:58:23;18.02;;;8.80;;
71298;SDS011;59083;47.974;21.722;2023-02-28T19:01:25;17.87;;;8.10;;
71298;SDS011;59083;47.974;21.722;2023-02-28T19:04:29;16.95;;;8.30;;
71298;SDS011;59083;47.974;21.722;2023-02-28T19:07:31;17.73;;;8.15;;
71298;SDS011;59083;47.974;21.722;2023-02-28T19:10:37;17.33;;;7.97;;
71298;SDS011;59083;47.974;21.722;2023-02-28T19:13:41;17.55;;;8.52;;
71298;SDS011;59083;47.974;21.722;2023-02-28T19:16:43;17.63;;;8.30;;
71298;SDS011;59083;47.974;21.722;2023-02-28T19:19:44;18.95;;;8.85;;
71298;SDS011;59083;47.974;21.722;2023-02-28T19:22:46;22.98;;;9.48;;
71298;SDS011;59083;47.974;21.722;2023-02-28T19:25:47;21.17;;;9.73;;
71298;SDS011;59083;47.974;21.722;2023-02-28T19:28:48;21.15;;;9.15;;
71298;SDS011;59083;47.974;21.722;2023-02-28T19:31:49;18.90;;;9.53;;
71298;SDS011;59083;47.974;21.722;2023-02-28T19:34:52;18.73;;;9.15;;
71298;SDS011;59083;47.974;21.722;2023-02-28T19:37:53;20.83;;;9.38;;
71298;SDS011;59083;47.974;21.722;2023-02-28T19:41:00;18.33;;;9.43;;
71298;SDS011;59083;47.974;21.722;2023-02-28T19:44:03;19.95;;;9.32;;
71298;SDS011;59083;47.974;21.722;2023-02-28T19:47:04;21.17;;;9.23;;
71298;SDS011;59083;47.974;21.722;2023-02-28T19:50:06;18.85;;;9.18;;
71298;SDS011;59083;47.974;21.722;2023-02-28T19:53:08;19.92;;;8.95;;
71298;SDS011;59083;47.974;21.722;2023-02-28T19:56:09;18.52;;;9.05;;
71298;SDS011;59083;47.974;21.722;2023-02-28T19:59:11;21.05;;;9.30;;
71298;SDS011;59083;47.974;21.722;2023-02-28T20:02:13;20.80;;;9.90;;
71298;SDS011;59083;47.974;21.722;2023-02-28T20:05:16;18.80;;;8.75;;
71298;SDS011;59083;47.974;21.722;2023-02-28T20:08:18;18.17;;;8.40;;
71298;SDS011;59083;47.974;21.722;2023-02-28T20:11:19;19.25;;;9.48;;
71298;SDS011;59083;47.974;21.722;2023-02-28T20:14:20;19.90;;;9.00;;
71298;SDS011;59083;47.974;21.722;2023-02-28T20:17:22;19.80;;;9.23;;
